sensor_id;sensor_type;location;lat;lon;timestamp;pressure;altitude;pressure_sealevel;temperature;humidity
64115;BME280;62188;35.640;139.748;2023-03-04T00:01:23;102476.29;;;17.28;18.55
64115;BME280;62188;35.640;139.748;2023-03-04T00:03:48;102475.11;;;17.69;18.74
64115;BME280;62188;35.640;139.748;2023-03-04T00:06:13;102472.99;;;18.09;18.67
64115;BME280;62188;35.640;139.748;2023-03-04T00:08:39;102473.13;;;18.39;18.28
64115;BME280;62188;35.640;139.748;2023-03-04T00:11:05;102472.32;;;18.20;18.02
64115;BME280;62188;35.640;139.748;2023-03-04T00:13:30;102469.38;;;18.11;18.06
64115;BME280;62188;35.640;139.748;2023-03-04T00:15:55;102470.56;;;18.30;18.30
64115;BME280;62188;35.640;139.748;2023-03-04T00:18:21;102465.03;;;18.06;18.01
64115;BME280;62188;35.640;139.748;2023-03-04T00:20:45;102461.72;;;18.16;18.23
64115;BME280;62188;35.640;139.748;2023-03-04T00:23:11;102459.56;;;18.81;18.12
64115;BME280;62188;35.640;139.748;2023-03-04T00:25:36;102457.06;;;19.14;18.45
64115;BME280;62188;35.640;139.748;2023-03-04T00:28:02;102449.81;;;18.98;18.03
64115;BME280;62188;35.640;139.748;2023-03-04T00:30:28;102446.57;;;19.06;18.20
64115;BME280;62188;35.640;139.748;2023-03-04T00:32:54;102443.98;;;19.14;18.15
64115;BME280;62188;35.640;139.748;2023-03-04T00:35:18;102439.70;;;19.17;18.15
64115;BME280;62188;35.640;139.748;2023-03-04T00:37:44;102431.52;;;19.42;17.46
64115;BME280;62188;35.640;139.748;2023-03-04T00:40:11;102431.93;;;18.92;17.80
64115;BME280;62188;35.640;139.748;2023-03-04T00:42:35;102426.81;;;19.02;17.94
64115;BME280;62188;35.640;139.748;2023-03-04T00:45:01;102421.82;;;19.22;18.17
64115;BME280;62188;35.640;139.748;2023-03-04T00:47:27;102420.01;;;19.65;18.08
64115;BME280;62188;35.640;139.748;2023-03-04T00:49:52;102417.53;;;19.76;17.68
64115;BME280;62188;35.640;139.748;2023-03-04T00:52:18;102416.70;;;20.04;17.47
64115;BME280;62188;35.640;139.748;2023-03-04T00:54:43;102412.72;;;20.37;17.49
64115;BME280;62188;35.640;139.748;2023-03-04T00:57:09;102408.35;;;20.49;17.28
64115;BME280;62188;35.640;139.748;2023-03-04T00:59:35;102406.36;;;20.46;16.92
64115;BME280;62188;35.640;139.748;2023-03-04T01:02:00;102405.18;;;20.84;16.79
64115;BME280;62188;35.640;139.748;2023-03-04T01:04:26;102403.70;;;20.35;16.78
64115;BME280;62188;35.640;139.748;2023-03-04T01:06:50;102401.15;;;20.51;16.73
64115;BME280;62188;35.640;139.748;2023-03-04T01:09:16;102399.62;;;20.52;16.54
64115;BME280;62188;35.640;139.748;2023-03-04T01:11:42;102398.37;;;20.95;16.57
64115;BME280;62188;35.640;139.748;2023-03-04T01:14:08;102395.80;;;20.54;16.30
64115;BME280;62188;35.640;139.748;2023-03-04T01:16:33;102390.80;;;20.66;16.71
64115;BME280;62188;35.640;139.748;2023-03-04T01:18:58;102388.24;;;21.13;16.47
64115;BME280;62188;35.640;139.748;2023-03-04T01:21:24;102387.36;;;21.35;16.43
64115;BME280;62188;35.640;139.748;2023-03-04T01:23:49;102387.81;;;21.42;16.00
64115;BME280;62188;35.640;139.748;2023-03-04T01:26:15;102385.61;;;21.61;15.87
64115;BME280;62188;35.640;139.748;2023-03-04T01:28:40;102386.30;;;21.59;15.72
64115;BME280;62188;35.640;139.748;2023-03-04T01:31:05;102388.09;;;21.82;15.17
64115;BME280;62188;35.640;139.748;2023-03-04T01:33:31;102381.90;;;21.95;14.96
64115;BME280;62188;35.640;139.748;2023-03-04T01:35:56;102378.80;;;22.05;14.95
64115;BME280;62188;35.640;139.748;2023-03-04T01:38:21;102370.56;;;21.92;14.40
64115;BME280;62188;35.640;139.748;2023-03-04T01:40:47;102370.15;;;22.09;14.50
64115;BME280;62188;35.640;139.748;2023-03-04T01:43:18;102366.63;;;22.24;14.55
64115;BME280;62188;35.640;139.748;2023-03-04T01:45:38;102367.33;;;22.26;14.41
64115;BME280;62188;35.640;139.748;2023-03-04T01:48:04;102361.97;;;22.19;13.94
64115;BME280;62188;35.640;139.748;2023-03-04T01:50:31;102358.52;;;22.01;13.98
64115;BME280;62188;35.640;139.748;2023-03-04T01:52:54;102358.70;;;22.36;14.21
64115;BME280;62188;35.640;139.748;2023-03-04T01:55:20;102355.27;;;21.80;14.01
64115;BME280;62188;35.640;139.748;2023-03-04T01:57:46;102355.04;;;21.78;13.98
64115;BME280;62188;35.640;139.748;2023-03-04T02:00:22;102353.58;;;21.93;13.84
64115;BME280;62188;35.640;139.748;2023-03-04T02:02:36;102357.36;;;21.84;14.31
64115;BME280;62188;35.640;139.748;2023-03-04T02:05:01;102354.95;;;22.11;14.00
64115;BME280;62188;35.640;139.748;2023-03-04T02:07:26;102350.26;;;21.95;14.11
64115;BME280;62188;35.640;139.748;2023-03-04T02:09:52;102348.86;;;21.74;14.09
64115;BME280;62188;35.640;139.748;2023-03-04T02:12:17;102347.07;;;22.23;14.29
64115;BME280;62188;35.640;139.748;2023-03-04T02:14:44;102344.42;;;22.07;14.07
64115;BME280;62188;35.640;139.748;2023-03-04T02:17:12;102341.54;;;21.89;14.02
64115;BME280;62188;35.640;139.748;2023-03-04T02:19:43;102334.81;;;22.71;13.54
64115;BME280;62188;35.640;139.748;2023-03-04T02:22:00;102332.19;;;22.42;13.41
64115;BME280;62188;35.640;139.748;2023-03-04T02:24:31;102329.23;;;22.19;13.25
64115;BME280;62188;35.640;139.748;2023-03-04T02:26:52;102327.21;;;22.16;13.56
64115;BME280;62188;35.640;139.748;2023-03-04T02:29:17;102322.14;;;22.51;13.54
64115;BME280;62188;35.640;139.748;2023-03-04T02:31:45;102312.13;;;22.38;13.15
64115;BME280;62188;35.640;139.748;2023-03-04T02:34:12;102306.34;;;22.56;13.49
64115;BME280;62188;35.640;139.748;2023-03-04T02:36:35;102291.74;;;22.37;13.58
64115;BME280;62188;35.640;139.748;2023-03-04T02:39:03;102294.99;;;22.28;13.62
64115;BME280;62188;35.640;139.748;2023-03-04T02:41:25;102294.43;;;22.22;13.88
64115;BME280;62188;35.640;139.748;2023-03-04T02:43:51;102285.60;;;22.21;13.49
64115;BME280;62188;35.640;139.748;2023-03-04T02:46:15;102276.87;;;22.01;13.57
64115;BME280;62188;35.640;139.748;2023-03-04T02:48:41;102268.95;;;22.52;13.54
64115;BME280;62188;35.640;139.748;2023-03-04T02:51:06;102270.15;;;22.13;13.61
64115;BME280;62188;35.640;139.748;2023-03-04T02:53:31;102258.84;;;22.66;13.41
64115;BME280;62188;35.640;139.748;2023-03-04T02:55:58;102254.74;;;22.75;13.50
64115;BME280;62188;35.640;139.748;2023-03-04T02:58:23;102248.79;;;22.66;13.13
64115;BME280;62188;35.640;139.748;2023-03-04T03:00:48;102238.88;;;22.27;13.14
64115;BME280;62188;35.640;139.748;2023-03-04T03:03:14;102237.62;;;22.69;13.16
64115;BME280;62188;35.640;139.748;2023-03-04T03:05:39;102230.94;;;22.32;13.26
64115;BME280;62188;35.640;139.748;2023-03-04T03:08:05;102221.24;;;22.79;13.40
64115;BME280;62188;35.640;139.748;2023-03-04T03:10:30;102209.35;;;22.58;12.91
64115;BME280;62188;35.640;139.748;2023-03-04T03:12:55;102212.55;;;22.34;13.14
64115;BME280;62188;35.640;139.748;2023-03-04T03:15:21;102203.31;;;22.16;13.06
64115;BME280;62188;35.640;139.748;2023-03-04T03:17:47;102202.75;;;22.18;13.42
64115;BME280;62188;35.640;139.748;2023-03-04T03:20:13;102198.31;;;22.44;13.38
64115;BME280;62188;35.640;139.748;2023-03-04T03:22:37;102194.52;;;22.68;13.54
64115;BME280;62188;35.640;139.748;2023-03-04T03:25:03;102191.94;;;22.60;12.91
64115;BME280;62188;35.640;139.748;2023-03-04T03:27:29;102182.35;;;22.39;13.40
64115;BME280;62188;35.640;139.748;2023-03-04T03:29:54;102186.10;;;22.38;13.99
64115;BME280;62188;35.640;139.748;2023-03-04T03:32:19;102180.27;;;22.83;14.69
64115;BME280;62188;35.640;139.748;2023-03-04T03:34:44;102169.97;;;23.04;13.06
64115;BME280;62188;35.640;139.748;2023-03-04T03:37:10;102168.76;;;23.26;12.77
64115;BME280;62188;35.640;139.748;2023-03-04T03:39:36;102160.03;;;23.00;13.15
64115;BME280;62188;35.640;139.748;2023-03-04T03:42:01;102160.45;;;23.35;13.50
64115;BME280;62188;35.640;139.748;2023-03-04T03:44:27;102152.71;;;23.50;13.17
64115;BME280;62188;35.640;139.748;2023-03-04T03:46:52;102150.50;;;23.32;12.98
64115;BME280;62188;35.640;139.748;2023-03-04T03:49:18;102147.16;;;23.33;13.27
64115;BME280;62188;35.640;139.748;2023-03-04T03:51:43;102138.76;;;22.89;12.58
64115;BME280;62188;35.640;139.748;2023-03-04T03:54:09;102134.89;;;22.72;12.81
64115;BME280;62188;35.640;139.748;2023-03-04T03:56:34;102131.26;;;22.89;13.39
64115;BME280;62188;35.640;139.748;2023-03-04T03:59:00;102124.95;;;23.27;13.28
64115;BME280;62188;35.640;139.748;2023-03-04T04:01:25;102117.77;;;23.39;12.73
64115;BME280;62188;35.640;139.748;2023-03-04T04:03:50;102111.02;;;23.47;12.61
64115;BME280;62188;35.640;139.748;2023-03-04T04:06:16;102106.75;;;23.90;12.23
64115;BME280;62188;35.640;139.748;2023-03-04T04:08:41;102105.15;;;23.84;12.89
64115;BME280;62188;35.640;139.748;2023-03-04T04:11:10;102105.76;;;23.62;12.76
64115;BME280;62188;35.640;139.748;2023-03-04T04:13:32;102101.87;;;23.77;12.34
64115;BME280;62188;35.640;139.748;2023-03-04T04:15:58;102098.90;;;23.96;12.33
64115;BME280;62188;35.640;139.748;2023-03-04T04:18:22;102099.36;;;24.15;12.54
64115;BME280;62188;35.640;139.748;2023-03-04T04:20:49;102092.81;;;23.89;12.55
64115;BME280;62188;35.640;139.748;2023-03-04T04:23:14;102092.23;;;23.92;11.96
64115;BME280;62188;35.640;139.748;2023-03-04T04:25:39;102088.01;;;23.76;12.06
64115;BME280;62188;35.640;139.748;2023-03-04T04:28:04;102091.15;;;24.39;11.90
64115;BME280;62188;35.640;139.748;2023-03-04T04:30:30;102092.07;;;23.94;12.05
64115;BME280;62188;35.640;139.748;2023-03-04T04:32:56;102086.71;;;23.89;12.95
64115;BME280;62188;35.640;139.748;2023-03-04T04:35:21;102079.20;;;24.00;11.91
64115;BME280;62188;35.640;139.748;2023-03-04T04:37:47;102077.66;;;24.26;13.32
64115;BME280;62188;35.640;139.748;2023-03-04T04:40:13;102076.09;;;23.38;14.11
64115;BME280;62188;35.640;139.748;2023-03-04T04:42:38;102080.62;;;23.72;14.07
64115;BME280;62188;35.640;139.748;2023-03-04T04:45:04;102075.78;;;23.81;14.08
64115;BME280;62188;35.640;139.748;2023-03-04T04:47:29;102076.22;;;23.81;14.80
64115;BME280;62188;35.640;139.748;2023-03-04T04:49:54;102082.46;;;23.10;15.20
64115;BME280;62188;35.640;139.748;2023-03-04T04:52:19;102078.94;;;22.51;15.69
64115;BME280;62188;35.640;139.748;2023-03-04T04:54:44;102077.22;;;22.19;15.75
64115;BME280;62188;35.640;139.748;2023-03-04T04:57:10;102077.02;;;21.85;15.47
64115;BME280;62188;35.640;139.748;2023-03-04T04:59:36;102080.65;;;21.43;15.90
64115;BME280;62188;35.640;139.748;2023-03-04T05:02:02;102073.71;;;20.60;16.42
64115;BME280;62188;35.640;139.748;2023-03-04T05:04:27;102076.19;;;20.56;16.60
64115;BME280;62188;35.640;139.748;2023-03-04T05:06:53;102078.65;;;20.23;16.70
64115;BME280;62188;35.640;139.748;2023-03-04T05:09:19;102079.62;;;20.00;16.91
64115;BME280;62188;35.640;139.748;2023-03-04T05:11:44;102078.74;;;19.74;17.20
64115;BME280;62188;35.640;139.748;2023-03-04T05:14:09;102080.82;;;20.12;17.60
64115;BME280;62188;35.640;139.748;2023-03-04T05:16:35;102076.93;;;19.78;17.83
64115;BME280;62188;35.640;139.748;2023-03-04T05:19:00;102081.29;;;19.88;18.11
64115;BME280;62188;35.640;139.748;2023-03-04T05:21:26;102076.74;;;19.46;18.20
64115;BME280;62188;35.640;139.748;2023-03-04T05:23:51;102075.78;;;19.63;18.59
64115;BME280;62188;35.640;139.748;2023-03-04T05:26:17;102081.21;;;19.56;18.53
64115;BME280;62188;35.640;139.748;2023-03-04T05:28:42;102082.93;;;19.15;18.35
64115;BME280;62188;35.640;139.748;2023-03-04T05:31:07;102081.01;;;19.15;18.35
64115;BME280;62188;35.640;139.748;2023-03-04T05:33:32;102079.70;;;18.97;18.20
64115;BME280;62188;35.640;139.748;2023-03-04T05:35:57;102083.36;;;19.14;18.19
64115;BME280;62188;35.640;139.748;2023-03-04T05:38:23;102085.02;;;19.06;18.22
64115;BME280;62188;35.640;139.748;2023-03-04T05:40:49;102085.66;;;18.83;18.05
64115;BME280;62188;35.640;139.748;2023-03-04T05:43:14;102093.94;;;18.59;18.20
64115;BME280;62188;35.640;139.748;2023-03-04T05:45:39;102097.61;;;18.23;18.61
64115;BME280;62188;35.640;139.748;2023-03-04T05:48:04;102098.39;;;18.71;18.49
64115;BME280;62188;35.640;139.748;2023-03-04T05:50:30;102098.60;;;18.78;18.35
64115;BME280;62188;35.640;139.748;2023-03-04T05:52:56;102104.82;;;18.75;18.28
64115;BME280;62188;35.640;139.748;2023-03-04T05:55:20;102113.07;;;18.68;18.38
64115;BME280;62188;35.640;139.748;2023-03-04T05:57:46;102106.47;;;18.32;18.36
64115;BME280;62188;35.640;139.748;2023-03-04T06:00:13;102110.23;;;18.55;18.36
64115;BME280;62188;35.640;139.748;2023-03-04T06:02:37;102109.97;;;18.31;18.13
64115;BME280;62188;35.640;139.748;2023-03-04T06:05:03;102109.19;;;18.14;18.07
64115;BME280;62188;35.640;139.748;2023-03-04T06:07:27;102110.83;;;18.07;18.28
64115;BME280;62188;35.640;139.748;2023-03-04T06:09:53;102107.78;;;18.55;18.33
64115;BME280;62188;35.640;139.748;2023-03-04T06:12:19;102105.85;;;18.10;18.21
64115;BME280;62188;35.640;139.748;2023-03-04T06:14:44;102107.67;;;17.97;18.12
64115;BME280;62188;35.640;139.748;2023-03-04T06:17:09;102109.97;;;17.92;17.96
64115;BME280;62188;35.640;139.748;2023-03-04T06:19:34;102110.11;;;18.25;18.04
64115;BME280;62188;35.640;139.748;2023-03-04T06:22:00;102110.44;;;17.64;18.11
64115;BME280;62188;35.640;139.748;2023-03-04T06:24:24;102108.96;;;17.66;17.91
64115;BME280;62188;35.640;139.748;2023-03-04T06:26:50;102115.74;;;17.47;18.09
64115;BME280;62188;35.640;139.748;2023-03-04T06:29:15;102113.66;;;17.24;18.37
64115;BME280;62188;35.640;139.748;2023-03-04T06:31:40;102114.92;;;17.17;18.46
64115;BME280;62188;35.640;139.748;2023-03-04T06:34:06;102121.42;;;17.29;18.37
64115;BME280;62188;35.640;139.748;2023-03-04T06:36:31;102127.72;;;17.26;18.40
64115;BME280;62188;35.640;139.748;2023-03-04T06:38:57;102128.08;;;17.33;18.38
64115;BME280;62188;35.640;139.748;2023-03-04T06:41:21;102125.18;;;17.26;18.14
64115;BME280;62188;35.640;139.748;2023-03-04T06:43:47;102124.59;;;17.30;18.06
64115;BME280;62188;35.640;139.748;2023-03-04T06:46:11;102122.75;;;17.34;17.97
64115;BME280;62188;35.640;139.748;2023-03-04T06:48:37;102123.61;;;17.47;17.97
64115;BME280;62188;35.640;139.748;2023-03-04T06:51:06;102123.65;;;17.62;17.90
64115;BME280;62188;35.640;139.748;2023-03-04T06:53:28;102120.01;;;17.55;17.98
64115;BME280;62188;35.640;139.748;2023-03-04T06:55:53;102117.90;;;17.31;17.93
64115;BME280;62188;35.640;139.748;2023-03-04T06:58:18;102117.82;;;17.68;17.92
64115;BME280;62188;35.640;139.748;2023-03-04T07:00:43;102122.25;;;17.51;18.36
64115;BME280;62188;35.640;139.748;2023-03-04T07:03:10;102129.81;;;17.39;18.84
64115;BME280;62188;35.640;139.748;2023-03-04T07:05:34;102129.46;;;17.35;18.64
64115;BME280;62188;35.640;139.748;2023-03-04T07:08:00;102131.81;;;17.43;18.38
64115;BME280;62188;35.640;139.748;2023-03-04T07:10:25;102127.90;;;17.55;18.20
64115;BME280;62188;35.640;139.748;2023-03-04T07:12:50;102126.68;;;17.55;17.83
64115;BME280;62188;35.640;139.748;2023-03-04T07:15:16;102123.98;;;17.60;17.68
64115;BME280;62188;35.640;139.748;2023-03-04T07:17:41;102123.66;;;17.53;17.80
64115;BME280;62188;35.640;139.748;2023-03-04T07:20:07;102121.38;;;17.04;17.60
64115;BME280;62188;35.640;139.748;2023-03-04T07:22:32;102119.78;;;17.52;17.51
64115;BME280;62188;35.640;139.748;2023-03-04T07:24:57;102121.65;;;17.63;17.78
64115;BME280;62188;35.640;139.748;2023-03-04T07:27:23;102124.38;;;17.41;17.78
64115;BME280;62188;35.640;139.748;2023-03-04T07:29:47;102127.50;;;17.53;17.62
64115;BME280;62188;35.640;139.748;2023-03-04T07:32:12;102131.74;;;17.50;17.91
64115;BME280;62188;35.640;139.748;2023-03-04T07:34:37;102133.18;;;17.44;18.02
64115;BME280;62188;35.640;139.748;2023-03-04T07:37:04;102135.23;;;17.72;17.78
64115;BME280;62188;35.640;139.748;2023-03-04T07:39:28;102136.69;;;17.76;17.43
64115;BME280;62188;35.640;139.748;2023-03-04T07:41:54;102142.31;;;17.76;17.58
64115;BME280;62188;35.640;139.748;2023-03-04T07:44:20;102146.46;;;17.82;17.89
64115;BME280;62188;35.640;139.748;2023-03-04T07:46:45;102146.78;;;17.90;17.94
64115;BME280;62188;35.640;139.748;2023-03-04T07:49:12;102144.53;;;17.55;17.79
64115;BME280;62188;35.640;139.748;2023-03-04T07:51:35;102149.66;;;17.90;17.75
64115;BME280;62188;35.640;139.748;2023-03-04T07:54:01;102149.66;;;18.26;17.69
64115;BME280;62188;35.640;139.748;2023-03-04T07:56:28;102153.06;;;17.89;17.48
64115;BME280;62188;35.640;139.748;2023-03-04T07:58:51;102156.17;;;17.93;17.46
64115;BME280;62188;35.640;139.748;2023-03-04T08:01:19;102158.96;;;17.93;17.18
64115;BME280;62188;35.640;139.748;2023-03-04T08:03:43;102161.81;;;17.85;17.19
64115;BME280;62188;35.640;139.748;2023-03-04T08:06:10;102161.55;;;18.34;17.89
64115;BME280;62188;35.640;139.748;2023-03-04T08:08:34;102160.54;;;18.17;17.24
64115;BME280;62188;35.640;139.748;2023-03-04T08:10:59;102161.49;;;17.95;17.12
64115;BME280;62188;35.640;139.748;2023-03-04T08:13:25;102164.96;;;18.21;17.45
64115;BME280;62188;35.640;139.748;2023-03-04T08:15:50;102170.64;;;18.05;18.50
64115;BME280;62188;35.640;139.748;2023-03-04T08:18:16;102174.98;;;18.13;17.85
64115;BME280;62188;35.640;139.748;2023-03-04T08:20:42;102174.27;;;18.14;17.21
64115;BME280;62188;35.640;139.748;2023-03-04T08:23:07;102173.33;;;18.13;16.83
64115;BME280;62188;35.640;139.748;2023-03-04T08:25:32;102177.85;;;18.15;16.81
64115;BME280;62188;35.640;139.748;2023-03-04T08:27:58;102182.98;;;18.13;16.68
64115;BME280;62188;35.640;139.748;2023-03-04T08:30:23;102185.09;;;18.13;16.68
64115;BME280;62188;35.640;139.748;2023-03-04T08:32:49;102184.76;;;18.15;16.75
64115;BME280;62188;35.640;139.748;2023-03-04T08:35:14;102188.34;;;18.17;16.82
64115;BME280;62188;35.640;139.748;2023-03-04T08:37:39;102187.84;;;18.44;17.82
64115;BME280;62188;35.640;139.748;2023-03-04T08:40:06;102189.99;;;18.19;17.70
64115;BME280;62188;35.640;139.748;2023-03-04T08:42:30;102192.79;;;18.24;17.68
64115;BME280;62188;35.640;139.748;2023-03-04T08:44:56;102198.26;;;18.24;17.61
64115;BME280;62188;35.640;139.748;2023-03-04T08:47:21;102201.86;;;18.24;17.76
64115;BME280;62188;35.640;139.748;2023-03-04T08:49:46;102205.00;;;18.23;17.81
64115;BME280;62188;35.640;139.748;2023-03-04T08:52:11;102207.68;;;18.26;17.66
64115;BME280;62188;35.640;139.748;2023-03-04T08:54:37;102209.66;;;18.31;17.77
64115;BME280;62188;35.640;139.748;2023-03-04T08:57:02;102208.40;;;18.30;17.25
64115;BME280;62188;35.640;139.748;2023-03-04T08:59:28;102207.90;;;18.28;17.03
64115;BME280;62188;35.640;139.748;2023-03-04T09:01:53;102209.13;;;18.01;17.24
64115;BME280;62188;35.640;139.748;2023-03-04T09:04:18;102214.83;;;18.29;17.52
64115;BME280;62188;35.640;139.748;2023-03-04T09:06:44;102220.79;;;18.31;17.38
64115;BME280;62188;35.640;139.748;2023-03-04T09:09:08;102223.14;;;18.31;17.88
64115;BME280;62188;35.640;139.748;2023-03-04T09:11:34;102225.34;;;18.30;17.69
64115;BME280;62188;35.640;139.748;2023-03-04T09:14:00;102229.09;;;18.32;17.32
64115;BME280;62188;35.640;139.748;2023-03-04T09:16:25;102228.94;;;18.28;17.31
64115;BME280;62188;35.640;139.748;2023-03-04T09:18:51;102227.44;;;18.29;17.61
64115;BME280;62188;35.640;139.748;2023-03-04T09:21:15;102232.48;;;18.78;17.59
64115;BME280;62188;35.640;139.748;2023-03-04T09:23:41;102231.69;;;18.28;17.32
64115;BME280;62188;35.640;139.748;2023-03-04T09:26:14;102238.57;;;18.27;17.50
64115;BME280;62188;35.640;139.748;2023-03-04T09:28:31;102245.07;;;18.03;17.69
64115;BME280;62188;35.640;139.748;2023-03-04T09:30:55;102251.03;;;18.30;18.43
64115;BME280;62188;35.640;139.748;2023-03-04T09:33:21;102254.17;;;18.31;17.73
64115;BME280;62188;35.640;139.748;2023-03-04T09:35:46;102257.25;;;18.30;18.22
64115;BME280;62188;35.640;139.748;2023-03-04T09:38:12;102259.39;;;18.23;17.95
64115;BME280;62188;35.640;139.748;2023-03-04T09:40:40;102265.63;;;17.97;17.79
64115;BME280;62188;35.640;139.748;2023-03-04T09:43:04;102267.24;;;18.17;17.15
64115;BME280;62188;35.640;139.748;2023-03-04T09:45:33;102271.10;;;17.82;16.51
64115;BME280;62188;35.640;139.748;2023-03-04T09:47:54;102273.57;;;17.94;16.56
64115;BME280;62188;35.640;139.748;2023-03-04T09:50:20;102273.74;;;17.84;16.71
64115;BME280;62188;35.640;139.748;2023-03-04T09:52:55;102278.86;;;18.08;16.71
64115;BME280;62188;35.640;139.748;2023-03-04T09:55:18;102280.16;;;17.76;16.35
64115;BME280;62188;35.640;139.748;2023-03-04T09:57:43;102288.13;;;17.54;16.45
64115;BME280;62188;35.640;139.748;2023-03-04T10:00:12;102295.01;;;17.98;16.57
64115;BME280;62188;35.640;139.748;2023-03-04T10:02:36;102305.21;;;17.72;16.76
64115;BME280;62188;35.640;139.748;2023-03-04T10:04:58;102312.83;;;17.76;16.64
64115;BME280;62188;35.640;139.748;2023-03-04T10:07:22;102316.91;;;17.79;17.09
64115;BME280;62188;35.640;139.748;2023-03-04T10:09:49;102321.65;;;17.78;17.12
64115;BME280;62188;35.640;139.748;2023-03-04T10:12:14;102324.16;;;17.71;18.48
64115;BME280;62188;35.640;139.748;2023-03-04T10:14:39;102325.02;;;17.70;19.13
64115;BME280;62188;35.640;139.748;2023-03-04T10:17:07;102326.49;;;17.65;19.95
64115;BME280;62188;35.640;139.748;2023-03-04T10:19:36;102327.48;;;17.67;21.56
64115;BME280;62188;35.640;139.748;2023-03-04T10:21:52;102331.91;;;17.66;23.14
64115;BME280;62188;35.640;139.748;2023-03-04T10:24:20;102330.96;;;17.67;23.95
64115;BME280;62188;35.640;139.748;2023-03-04T10:26:45;102329.61;;;17.63;25.51
64115;BME280;62188;35.640;139.748;2023-03-04T10:29:10;102329.29;;;18.08;25.31
64115;BME280;62188;35.640;139.748;2023-03-04T10:31:35;102329.51;;;17.75;24.08
64115;BME280;62188;35.640;139.748;2023-03-04T10:33:59;102333.73;;;17.42;21.57
64115;BME280;62188;35.640;139.748;2023-03-04T10:36:37;102335.40;;;17.57;18.89
64115;BME280;62188;35.640;139.748;2023-03-04T10:38:55;102334.46;;;17.22;17.61
64115;BME280;62188;35.640;139.748;2023-03-04T10:41:24;102340.49;;;17.10;17.01
64115;BME280;62188;35.640;139.748;2023-03-04T10:43:41;102338.99;;;17.32;16.85
64115;BME280;62188;35.640;139.748;2023-03-04T10:46:11;102341.02;;;17.36;16.03
64115;BME280;62188;35.640;139.748;2023-03-04T10:48:33;102339.98;;;17.20;16.26
64115;BME280;62188;35.640;139.748;2023-03-04T10:51:12;102344.69;;;17.21;16.17
64115;BME280;62188;35.640;139.748;2023-03-04T10:53:29;102346.75;;;17.18;15.93
64115;BME280;62188;35.640;139.748;2023-03-04T10:55:49;102347.39;;;17.32;16.05
64115;BME280;62188;35.640;139.748;2023-03-04T10:58:17;102346.52;;;16.85;15.68
64115;BME280;62188;35.640;139.748;2023-03-04T11:00:41;102343.92;;;16.60;15.80
64115;BME280;62188;35.640;139.748;2023-03-04T11:03:23;102347.18;;;16.48;15.66
64115;BME280;62188;35.640;139.748;2023-03-04T11:05:32;102347.84;;;16.47;15.77
64115;BME280;62188;35.640;139.748;2023-03-04T11:07:59;102351.18;;;16.71;16.22
64115;BME280;62188;35.640;139.748;2023-03-04T11:10:26;102358.65;;;16.63;15.63
64115;BME280;62188;35.640;139.748;2023-03-04T11:12:50;102364.87;;;16.13;15.72
64115;BME280;62188;35.640;139.748;2023-03-04T11:15:21;102369.57;;;16.33;15.87
64115;BME280;62188;35.640;139.748;2023-03-04T11:17:44;102371.91;;;16.44;15.92
64115;BME280;62188;35.640;139.748;2023-03-04T11:20:12;102371.12;;;16.15;15.81
64115;BME280;62188;35.640;139.748;2023-03-04T11:22:32;102378.12;;;16.35;16.12
64115;BME280;62188;35.640;139.748;2023-03-04T11:25:00;102379.79;;;16.26;16.11
64115;BME280;62188;35.640;139.748;2023-03-04T11:27:27;102379.78;;;16.21;16.19
64115;BME280;62188;35.640;139.748;2023-03-04T11:29:53;102382.75;;;15.92;16.33
64115;BME280;62188;35.640;139.748;2023-03-04T11:32:18;102385.71;;;15.88;16.47
64115;BME280;62188;35.640;139.748;2023-03-04T11:34:47;102387.43;;;15.99;16.57
64115;BME280;62188;35.640;139.748;2023-03-04T11:37:09;102385.59;;;16.06;16.39
64115;BME280;62188;35.640;139.748;2023-03-04T11:39:36;102384.16;;;16.13;16.44
64115;BME280;62188;35.640;139.748;2023-03-04T11:42:00;102389.27;;;16.19;16.88
64115;BME280;62188;35.640;139.748;2023-03-04T11:44:22;102392.49;;;16.26;16.81
64115;BME280;62188;35.640;139.748;2023-03-04T11:46:59;102393.70;;;16.45;16.62
64115;BME280;62188;35.640;139.748;2023-03-04T11:49:22;102399.37;;;15.95;16.61
64115;BME280;62188;35.640;139.748;2023-03-04T11:51:44;102396.29;;;16.16;16.46
64115;BME280;62188;35.640;139.748;2023-03-04T11:54:16;102401.17;;;16.12;16.62
64115;BME280;62188;35.640;139.748;2023-03-04T11:56:34;102404.35;;;16.16;16.79
64115;BME280;62188;35.640;139.748;2023-03-04T12:01:25;102413.77;;;16.16;16.99
64115;BME280;62188;35.640;139.748;2023-03-04T12:04:01;102417.65;;;16.15;17.14
64115;BME280;62188;35.640;139.748;2023-03-04T12:06:16;102414.10;;;16.08;16.93
64115;BME280;62188;35.640;139.748;2023-03-04T12:11:07;102420.51;;;15.96;17.22
64115;BME280;62188;35.640;139.748;2023-03-04T12:13:43;102417.71;;;15.71;17.41
64115;BME280;62188;35.640;139.748;2023-03-04T12:16:03;102415.61;;;15.39;17.56
64115;BME280;62188;35.640;139.748;2023-03-04T12:18:28;102419.89;;;15.10;17.72
64115;BME280;62188;35.640;139.748;2023-03-04T12:20:57;102426.02;;;15.34;18.00
64115;BME280;62188;35.640;139.748;2023-03-04T12:23:24;102423.03;;;15.05;18.05
64115;BME280;62188;35.640;139.748;2023-03-04T12:25:41;102425.09;;;15.34;18.21